Time;durP1;ratioP1;P1;durP2;ratioP2;P2;SDS_P1;SDS_P2;PMS_P1;PMS_P2;Temp;Humidity;BMP_temperature;BMP_pressure;BME280_temperature;BME280_humidity;BME280_pressure;Samples;Min_cycle;Max_cycle;Signal;HPM_P1;HPM_P2
2023/04/15 00:00:25;;;;;;;0.50;0.50;;;;;;;5.80;68.39;95898.03;29395;269;63025;-58
2023/04/15 00:00:58;;;;;;;0.50;0.50;;;;;;;5.80;68.24;95895.34;29395;206;63004;-58
2023/04/15 00:01:32;;;;;;;0.50;0.50;;;;;;;5.80;68.25;95892.66;29395;198;63009;-58
2023/04/15 00:02:17;;;;;;;0.50;0.50;;;;;;;5.80;68.44;95892.66;29395;280;63005;-58
2023/04/15 00:02:48;;;;;;;0.50;0.50;;;;;;;5.80;68.53;95898.03;29394;208;64014;-59
2023/04/15 00:03:20;;;;;;;0.52;0.52;;;;;;;5.80;68.37;95892.66;29395;226;63005;-59
2023/04/15 00:03:52;;;;;;;0.50;0.50;;;;;;;5.78;68.29;95894.81;29395;203;63009;-60
2023/04/15 00:04:24;;;;;;;0.60;0.60;;;;;;;5.78;68.47;95889.44;29395;267;63005;-58
2023/04/15 00:04:55;;;;;;;0.50;0.50;;;;;;;5.79;68.48;95896.44;29394;234;64013;-58
2023/04/15 00:05:29;;;;;;;0.50;0.50;;;;;;;5.78;68.69;95900.22;29395;208;63004;-59
2023/04/15 00:06:01;;;;;;;0.50;0.50;;;;;;;5.77;68.45;95890.53;29395;207;63009;-58
2023/04/15 00:06:32;;;;;;;0.50;0.50;;;;;;;5.78;68.65;95891.34;29395;242;63004;-58
2023/04/15 00:07:03;;;;;;;0.50;0.50;;;;;;;5.77;68.69;95893.22;29395;208;63009;-58
2023/04/15 00:07:35;;;;;;;0.50;0.50;;;;;;;5.76;68.56;95888.13;29395;252;63004;-58
2023/04/15 00:08:06;;;;;;;0.50;0.50;;;;;;;5.76;68.58;95890.81;29395;216;63008;-58
2023/04/15 00:08:38;;;;;;;0.50;0.50;;;;;;;5.75;68.78;95899.97;29395;206;63004;-58
2023/04/15 00:09:10;;;;;;;0.60;0.60;;;;;;;5.75;68.61;95898.09;29394;254;64014;-60
2023/04/15 00:09:41;;;;;;;0.60;0.60;;;;;;;5.74;68.67;95899.19;29395;234;63005;-58
2023/04/15 00:10:13;;;;;;;0.60;0.60;;;;;;;5.72;68.67;95890.59;29395;199;63009;-59
2023/04/15 00:10:45;;;;;;;0.50;0.50;;;;;;;5.71;68.87;95895.16;29394;209;64009;-58
2023/04/15 00:11:17;;;;;;;0.52;0.52;;;;;;;5.70;69.07;95898.94;29395;209;63009;-59
2023/04/15 00:11:50;;;;;;;0.50;0.50;;;;;;;5.69;69.69;95901.91;29395;221;63005;-59
2023/04/15 00:12:21;;;;;;;0.50;0.50;;;;;;;5.67;69.23;95898.72;29394;197;64013;-59
2023/04/15 00:12:53;;;;;;;0.60;0.60;;;;;;;5.66;69.04;95905.19;29395;243;63005;-58
2023/04/15 00:13:24;;;;;;;0.60;0.60;;;;;;;5.66;69.19;95897.09;29395;273;63009;-58
2023/04/15 00:13:55;;;;;;;0.60;0.60;;;;;;;5.66;69.37;95894.41;29395;202;63004;-58
2023/04/15 00:14:26;;;;;;;0.60;0.60;;;;;;;5.65;69.47;95892.81;29395;202;63009;-59
2023/04/15 00:14:58;;;;;;;0.60;0.60;;;;;;;5.65;69.24;95901.69;29394;219;63998;-58
2023/04/15 00:15:29;;;;;;;0.50;0.50;;;;;;;5.64;69.39;95904.66;29395;205;63017;-58
2023/04/15 00:16:01;;;;;;;0.60;0.60;;;;;;;5.64;69.29;95901.97;29395;197;63004;-58
2023/04/15 00:16:32;;;;;;;0.55;0.55;;;;;;;5.64;69.12;95896.59;29395;289;63009;-58
2023/04/15 00:17:04;;;;;;;0.50;0.50;;;;;;;5.63;69.13;95900.37;29395;203;63008;-58
2023/04/15 00:17:37;;;;;;;0.60;0.60;;;;;;;5.61;69.25;95894.47;29395;247;63009;-58
2023/04/15 00:18:08;;;;;;;0.50;0.50;;;;;;;5.61;69.21;95899.84;29395;362;63005;-59
2023/04/15 00:18:40;;;;;;;0.50;0.50;;;;;;;5.59;69.35;95896.62;29395;203;63009;-59
2023/04/15 00:19:12;;;;;;;0.60;0.60;;;;;;;5.59;69.45;95899.31;29395;215;63005;-58
2023/04/15 00:19:46;;;;;;;0.50;0.50;;;;;;;5.59;69.59;95902.00;29395;323;63009;-58
2023/04/15 00:20:17;;;;;;;0.50;0.50;;;;;;;5.57;69.70;95893.44;29394;277;64009;-59
2023/04/15 00:20:49;;;;;;;0.60;0.60;;;;;;;5.58;69.52;95900.41;29395;230;63009;-58
2023/04/15 00:21:20;;;;;;;0.50;0.50;;;;;;;5.58;69.80;95895.03;29395;221;63004;-58
2023/04/15 00:21:51;;;;;;;0.50;0.50;;;;;;;5.57;69.69;95896.91;29395;256;63009;-59
2023/04/15 00:22:23;;;;;;;0.50;0.50;;;;;;;5.57;70.03;95901.50;29394;232;64009;-59
2023/04/15 00:22:54;;;;;;;0.50;0.50;;;;;;;5.57;69.63;95901.50;29395;202;63009;-58
2023/04/15 00:23:25;;;;;;;0.60;0.60;;;;;;;5.56;69.65;95907.97;29395;258;63004;-58
2023/04/15 00:23:57;;;;;;;0.50;0.50;;;;;;;5.57;70.01;95901.50;29394;199;64014;-58
2023/04/15 00:24:29;;;;;;;0.50;0.50;;;;;;;5.56;69.69;95898.00;29394;211;64009;-58
2023/04/15 00:25:01;;;;;;;0.60;0.60;;;;;;;5.56;70.10;95899.87;29394;212;64014;-60
2023/04/15 00:25:32;;;;;;;0.60;0.60;;;;;;;5.55;69.90;95900.97;29395;204;63016;-58
2023/04/15 00:26:04;;;;;;;0.50;0.50;;;;;;;5.54;70.01;95897.50;29395;306;63009;-59
2023/04/15 00:26:35;;;;;;;0.50;0.50;;;;;;;5.53;70.05;95895.91;29395;229;63005;-58
2023/04/15 00:27:07;;;;;;;0.60;0.60;;;;;;;5.54;69.81;95899.41;29395;197;63009;-58
2023/04/15 00:27:39;;;;;;;0.50;0.50;;;;;;;5.54;70.12;95894.03;29395;308;63004;-58
2023/04/15 00:28:10;;;;;;;0.50;0.50;;;;;;;5.53;70.03;95889.72;29395;256;63009;-58
2023/04/15 00:28:42;;;;;;;0.50;0.50;;;;;;;5.52;69.88;95890.81;29395;236;63004;-58
2023/04/15 00:29:14;;;;;;;0.55;0.55;;;;;;;5.50;69.79;95891.09;29395;207;63013;-58
2023/04/15 00:29:45;;;;;;;0.52;0.52;;;;;;;5.49;69.84;95889.50;29395;283;63004;-62
2023/04/15 00:30:17;;;;;;;0.50;0.50;;;;;;;5.48;69.71;95889.78;29395;354;63008;-57
2023/04/15 00:30:49;;;;;;;0.50;0.50;;;;;;;5.46;69.84;95891.94;29395;355;63004;-59
2023/04/15 00:31:21;;;;;;;0.50;0.50;;;;;;;5.47;69.73;95893.56;29395;238;63005;-60
2023/04/15 00:31:53;;;;;;;0.55;0.55;;;;;;;5.46;69.91;95892.75;29395;300;63005;-58
2023/04/15 00:32:25;;;;;;;0.50;0.50;;;;;;;5.46;69.82;95891.94;29395;275;63024;-58
2023/04/15 00:32:57;;;;;;;0.50;0.50;;;;;;;5.47;70.05;95890.84;29395;212;63005;-58
2023/04/15 00:33:29;;;;;;;0.50;0.50;;;;;;;5.46;69.80;95886.56;29395;206;63009;-58
2023/04/15 00:34:01;;;;;;;0.60;0.60;;;;;;;5.46;70.01;95891.94;29395;231;63000;-58
2023/04/15 00:34:32;;;;;;;0.50;0.50;;;;;;;5.48;69.90;95889.78;29394;247;64013;-58
2023/04/15 00:35:05;;;;;;;0.50;0.50;;;;;;;5.48;70.06;95887.09;29395;222;63009;-58
2023/04/15 00:35:37;;;;;;;0.50;0.50;;;;;;;5.48;69.96;95889.78;29395;196;63009;-59
2023/04/15 00:36:10;;;;;;;0.55;0.55;;;;;;;5.48;70.04;95885.19;29395;203;63004;-58
2023/04/15 00:36:41;;;;;;;0.60;0.60;;;;;;;5.49;69.57;95886.00;29395;239;63009;-58
2023/04/15 00:37:12;;;;;;;0.60;0.60;;;;;;;5.48;69.79;95874.44;29395;335;63004;-58
2023/04/15 00:37:45;;;;;;;0.50;0.50;;;;;;;5.50;69.65;95884.91;29395;216;63008;-60
2023/04/15 00:38:18;;;;;;;0.60;0.60;;;;;;;5.49;69.79;95886.00;29395;245;63005;-58
2023/04/15 00:38:49;;;;;;;0.60;0.60;;;;;;;5.48;69.41;95884.41;29395;212;63009;-59
2023/04/15 00:39:22;;;;;;;0.50;0.50;;;;;;;5.48;69.90;95879.00;29394;260;64009;-62
2023/04/15 00:39:54;;;;;;;0.60;0.60;;;;;;;5.47;69.73;95888.16;29395;207;63009;-58
2023/04/15 00:40:26;;;;;;;0.50;0.50;;;;;;;5.47;69.90;95888.97;29394;202;64009;-59
2023/04/15 00:40:58;;;;;;;0.60;0.60;;;;;;;5.48;69.75;95884.41;29395;222;63026;-59
2023/04/15 00:41:29;;;;;;;0.50;0.50;;;;;;;5.47;70.05;95888.16;29395;240;63008;-58
2023/04/15 00:42:01;;;;;;;0.50;0.50;;;;;;;5.46;69.96;95883.88;29394;304;64013;-58
2023/04/15 00:42:35;;;;;;;0.60;0.60;;;;;;;5.44;70.08;95883.34;29395;203;63004;-58
2023/04/15 00:43:06;;;;;;;0.50;0.50;;;;;;;5.42;69.83;95880.94;29395;216;63009;-58
2023/04/15 00:43:37;;;;;;;0.50;0.50;;;;;;;5.42;70.07;95880.16;29394;266;64009;-58
2023/04/15 00:44:09;;;;;;;0.50;0.50;;;;;;;5.41;70.13;95878.53;29395;225;63009;-59
2023/04/15 00:44:41;;;;;;;0.60;0.60;;;;;;;5.39;70.30;95882.31;29394;244;64009;-58
2023/04/15 00:45:12;;;;;;;0.50;0.50;;;;;;;5.40;70.53;95872.34;29395;203;63008;-58
2023/04/15 00:45:45;;;;;;;0.52;0.52;;;;;;;5.38;70.53;95878.03;29394;208;64009;-58
2023/04/15 00:46:20;;;;;;;0.57;0.57;;;;;;;5.38;70.32;95880.72;29395;229;63009;-59
2023/04/15 00:46:51;;;;;;;0.50;0.50;;;;;;;5.36;70.83;95877.50;29395;234;63005;-62
2023/04/15 00:47:23;;;;;;;0.50;0.50;;;;;;;5.35;70.82;95883.97;29395;231;63009;-58
2023/04/15 00:47:55;;;;;;;0.60;0.60;;;;;;;5.34;71.23;95879.66;29395;204;63005;-59
2023/04/15 00:48:27;;;;;;;0.50;0.50;;;;;;;5.31;71.12;95880.22;29395;208;63009;-58
2023/04/15 00:48:59;;;;;;;0.50;0.50;;;;;;;5.31;71.57;95887.50;29395;222;63005;-57
2023/04/15 00:49:31;;;;;;;0.50;0.50;;;;;;;5.29;71.89;95885.09;29395;343;63009;-58
2023/04/15 00:50:07;;;;;;;0.50;0.50;;;;;;;5.27;71.83;95879.19;29395;225;63004;-58
2023/04/15 00:50:38;;;;;;;0.50;0.50;;;;;;;5.24;72.63;95885.13;29395;217;63009;-57
2023/04/15 00:51:12;;;;;;;0.50;0.50;;;;;;;5.23;72.95;95883.53;29394;327;64009;-57
2023/04/15 00:51:44;;;;;;;0.55;0.55;;;;;;;5.20;72.93;95877.94;29395;232;63009;-57
2023/04/15 00:52:15;;;;;;;0.60;0.60;;;;;;;5.13;73.30;95872.88;29395;197;63004;-58
2023/04/15 00:52:46;;;;;;;0.57;0.57;;;;;;;5.13;73.51;95886.34;29395;332;63008;-57
2023/04/15 00:53:18;;;;;;;0.60;0.60;;;;;;;5.09;73.99;95887.97;29395;197;63005;-57
2023/04/15 00:53:50;;;;;;;0.57;0.57;;;;;;;5.04;73.98;95885.31;29395;206;63009;-57
2023/04/15 00:54:22;;;;;;;0.60;0.60;;;;;;;5.00;74.19;95885.09;29395;221;63005;-58
2023/04/15 00:54:53;;;;;;;0.50;0.50;;;;;;;4.99;73.89;95882.69;29395;251;63009;-57
2023/04/15 00:55:24;;;;;;;0.50;0.50;;;;;;;5.00;74.09;95884.28;29395;199;63005;-57
2023/04/15 00:55:56;;;;;;;0.60;0.60;;;;;;;5.00;73.90;95884.28;29395;296;63009;-58
2023/04/15 00:56:30;;;;;;;0.50;0.50;;;;;;;5.02;73.67;95887.50;29394;236;64009;-59
2023/04/15 00:57:02;;;;;;;0.50;0.50;;;;;;;5.02;73.55;95884.81;29395;204;63009;-58
2023/04/15 00:57:35;;;;;;;0.50;0.50;;;;;;;5.01;73.51;95885.87;29395;309;63004;-58
2023/04/15 00:58:06;;;;;;;0.50;0.50;;;;;;;4.97;73.90;95885.66;29395;206;63009;-58
2023/04/15 00:58:38;;;;;;;0.52;0.52;;;;;;;4.94;73.97;95890.78;29395;222;63004;-59
2023/04/15 00:59:10;;;;;;;0.50;0.50;;;;;;;4.90;74.67;95892.44;29395;213;63009;-58
2023/04/15 00:59:41;;;;;;;0.60;0.60;;;;;;;4.86;74.80;95886.00;29395;230;63019;-59
2023/04/15 01:00:15;;;;;;;0.50;0.50;;;;;;;4.83;75.29;95895.47;29395;211;63008;-58
2023/04/15 01:00:48;;;;;;;0.60;0.60;;;;;;;4.82;75.49;95893.03;29395;238;63005;-58
2023/04/15 01:01:21;;;;;;;1.45;1.45;;;;;;;4.78;75.65;95889.31;29395;199;63009;-58
2023/04/15 01:01:52;;;;;;;0.50;0.50;;;;;;;4.77;76.04;95898.47;29394;218;64009;-59
2023/04/15 01:02:26;;;;;;;0.50;0.50;;;;;;;4.75;76.46;95897.94;29395;219;63020;-58
2023/04/15 01:02:57;;;;;;;0.50;0.50;;;;;;;4.67;76.47;95884.00;29395;284;63015;-59
2023/04/15 01:03:29;;;;;;;0.60;0.60;;;;;;;4.63;76.66;95895.59;29395;223;63009;-58
2023/04/15 01:04:02;;;;;;;0.60;0.60;;;;;;;4.61;76.91;95892.37;29395;314;63005;-58
2023/04/15 01:04:34;;;;;;;0.50;0.50;;;;;;;4.59;77.07;95884.59;29395;197;63009;-58
2023/04/15 01:05:07;;;;;;;0.50;0.50;;;;;;;4.58;76.58;95892.94;29395;289;63004;-58
2023/04/15 01:05:39;;;;;;;0.60;0.60;;;;;;;4.57;77.06;95892.13;29395;219;63009;-58
2023/04/15 01:06:10;;;;;;;0.60;0.60;;;;;;;4.57;77.08;95892.13;29395;325;63007;-58
2023/04/15 01:06:42;;;;;;;0.60;0.60;;;;;;;4.54;77.31;95887.31;29395;228;63009;-58
2023/04/15 01:07:13;;;;;;;0.60;0.60;;;;;;;4.51;78.21;95892.44;29394;293;64009;-58
2023/04/15 01:07:47;;;;;;;0.60;0.60;;;;;;;4.46;78.45;95890.59;29395;292;63008;-58
2023/04/15 01:08:18;;;;;;;0.50;0.50;;;;;;;4.43;78.48;95891.16;29395;222;63005;-58
2023/04/15 01:08:49;;;;;;;0.50;0.50;;;;;;;4.40;78.34;95894.41;29395;202;63009;-58
2023/04/15 01:09:21;;;;;;;0.50;0.50;;;;;;;4.38;78.06;95889.31;29395;220;63005;-58
2023/04/15 01:09:52;;;;;;;0.60;0.60;;;;;;;4.40;78.13;95898.97;29395;208;63009;-58
2023/04/15 01:10:24;;;;;;;0.50;0.50;;;;;;;4.38;78.38;95893.87;29395;198;63005;-58
2023/04/15 01:10:57;;;;;;;0.50;0.50;;;;;;;4.37;78.08;95892.25;29395;222;63009;-58
2023/04/15 01:11:33;;;;;;;0.50;0.50;;;;;;;4.38;77.23;95893.87;29395;221;63005;-58
2023/04/15 01:12:06;;;;;;;0.60;0.60;;;;;;;4.40;77.19;95890.91;29395;322;63009;-60
2023/04/15 01:12:38;;;;;;;0.60;0.60;;;;;;;4.42;76.91;95883.38;29394;222;64009;-58
2023/04/15 01:13:09;;;;;;;0.60;0.60;;;;;;;4.44;77.66;95887.41;29395;288;63009;-59
2023/04/15 01:13:41;;;;;;;1.02;1.02;;;;;;;4.44;77.50;95887.41;29395;196;63004;-59
2023/04/15 01:14:13;;;;;;;0.52;0.52;;;;;;;4.46;76.92;95885.22;29395;215;63009;-58
2023/04/15 01:14:44;;;;;;;0.50;0.50;;;;;;;4.46;76.90;95889.81;29395;264;63004;-58
2023/04/15 01:15:16;;;;;;;0.60;0.60;;;;;;;4.48;76.58;95890.31;29395;218;63008;-58
2023/04/15 01:15:50;;;;;;;0.50;0.50;;;;;;;4.49;76.07;95879.31;29395;277;63004;-58
2023/04/15 01:16:21;;;;;;;0.60;0.60;;;;;;;4.50;76.31;95888.97;29395;306;63009;-58
2023/04/15 01:16:52;;;;;;;0.50;0.50;;;;;;;4.52;76.22;95878.72;29395;207;63005;-60
2023/04/15 01:17:24;;;;;;;0.60;0.60;;;;;;;4.54;76.31;95876.56;29395;199;63009;-59
2023/04/15 01:17:58;;;;;;;0.50;0.50;;;;;;;4.56;76.25;95879.78;29394;319;64009;-58
2023/04/15 01:18:30;;;;;;;0.50;0.50;;;;;;;4.58;76.08;95874.91;29395;230;63009;-58
2023/04/15 01:19:02;;;;;;;0.60;0.60;;;;;;;4.60;75.50;95874.66;29395;236;63005;-58
2023/04/15 01:19:35;;;;;;;0.50;0.50;;;;;;;4.61;75.44;95882.44;29394;353;64013;-59
2023/04/15 01:20:11;;;;;;;0.60;0.60;;;;;;;4.64;75.08;95875.69;29395;267;63004;-58
2023/04/15 01:20:43;;;;;;;0.60;0.60;;;;;;;4.66;75.00;95877.03;29395;221;63009;-59
2023/04/15 01:21:14;;;;;;;0.60;0.60;;;;;;;4.69;74.82;95872.97;29395;214;63004;-58
2023/04/15 01:21:46;;;;;;;0.60;0.60;;;;;;;4.69;74.94;95879.16;29395;235;63009;-57
2023/04/15 01:22:17;;;;;;;0.60;0.60;;;;;;;4.73;74.51;95874.03;29395;218;63004;-58
2023/04/15 01:22:49;;;;;;;0.60;0.60;;;;;;;4.75;74.63;95877.22;29395;257;63008;-59
2023/04/15 01:23:24;;;;;;;0.60;0.60;;;;;;;4.78;74.51;95875.88;29395;235;63005;-63
2023/04/15 01:23:56;;;;;;;0.60;0.60;;;;;;;4.81;74.34;95880.69;29394;232;64014;-58
2023/04/15 01:24:30;;;;;;;0.60;0.60;;;;;;;4.81;74.02;95880.69;29395;243;63005;-59
2023/04/15 01:25:34;;;;;;;0.60;0.60;;;;;;;4.84;74.25;95877.44;29395;203;63009;-58
2023/04/15 01:26:09;;;;;;;0.60;0.60;;;;;;;4.85;73.96;95871.00;29394;202;64009;-58
2023/04/15 01:26:41;;;;;;;0.50;0.50;;;;;;;4.87;73.80;95868.78;29395;256;63019;-59
2023/04/15 01:27:13;;;;;;;0.60;0.60;;;;;;;4.88;73.66;95876.56;29395;206;63005;-59
2023/04/15 01:27:44;;;;;;;0.60;0.60;;;;;;;4.89;73.48;95872.00;29395;199;63009;-59
2023/04/15 01:28:16;;;;;;;0.60;0.60;;;;;;;4.91;73.30;95875.22;29395;208;63004;-59
2023/04/15 01:28:47;;;;;;;0.50;0.50;;;;;;;4.91;73.45;95875.22;29395;204;63009;-59
2023/04/15 01:29:19;;;;;;;0.60;0.60;;;;;;;4.92;73.23;95871.44;29394;202;64009;-58
2023/04/15 01:29:50;;;;;;;0.50;0.50;;;;;;;4.94;73.01;95880.84;29394;206;64013;-60
2023/04/15 01:30:22;;;;;;;0.60;0.60;;;;;;;4.95;73.05;95876.25;29395;264;63004;-59
2023/04/15 01:31:10;;;;;;;0.50;0.50;;;;;;;4.97;72.76;95876.78;29395;207;63008;-60
2023/04/15 01:31:50;;;;;;;0.57;0.57;;;;;;;4.98;72.78;95875.69;29395;202;63005;-59
2023/04/15 01:32:22;;;;;;;0.60;0.60;;;;;;;4.98;72.42;95867.63;29417;233;63009;-59
2023/04/15 01:32:53;;;;;;;0.50;0.50;;;;;;;5.00;72.57;95873.53;29395;203;63005;-59
2023/04/15 01:33:25;;;;;;;0.50;0.50;;;;;;;5.01;72.58;95870.56;29395;233;63009;-59
2023/04/15 01:33:56;;;;;;;0.60;0.60;;;;;;;5.02;72.31;95869.47;29394;216;63998;-58
2023/04/15 01:34:27;;;;;;;0.60;0.60;;;;;;;5.02;72.24;95866.00;29395;320;63009;-58
2023/04/15 01:34:59;;;;;;;0.50;0.50;;;;;;;5.02;72.39;95876.75;29395;240;63004;-60
2023/04/15 01:35:31;;;;;;;0.50;0.50;;;;;;;5.01;72.29;95875.13;29395;244;63009;-58
2023/04/15 01:36:03;;;;;;;0.50;0.50;;;;;;;5.00;72.16;95868.16;29395;442;63004;-58
2023/04/15 01:36:35;;;;;;;0.60;0.60;;;;;;;5.00;72.12;95878.91;29394;202;64013;-59
2023/04/15 01:37:06;;;;;;;0.50;0.50;;;;;;;4.98;72.30;95870.31;29395;204;63004;-58
2023/04/15 01:37:38;;;;;;;0.60;0.60;;;;;;;4.98;72.40;95875.69;29395;309;63005;-58
2023/04/15 01:38:11;;;;;;;0.60;0.60;;;;;;;4.97;72.39;95871.41;29395;197;63005;-59
2023/04/15 01:38:42;;;;;;;0.60;0.60;;;;;;;4.96;72.36;95873.28;29395;271;63009;-58
2023/04/15 01:39:14;;;;;;;0.60;0.60;;;;;;;4.95;72.47;95866.31;29395;229;63005;-59
2023/04/15 01:39:46;;;;;;;0.60;0.60;;;;;;;4.95;72.65;95870.87;29395;211;63009;-58
2023/04/15 01:40:17;;;;;;;0.52;0.52;;;;;;;4.94;72.74;95877.34;29395;197;63009;-63
2023/04/15 01:40:48;;;;;;;0.60;0.60;;;;;;;4.90;73.45;95876.28;29394;216;64005;-59
2023/04/15 01:41:27;;;;;;;0.60;0.60;;;;;;;4.85;73.85;95871.75;29395;300;63005;-59
2023/04/15 01:41:58;;;;;;;0.60;0.60;;;;;;;4.84;73.65;95872.88;29395;232;63009;-58
2023/04/15 01:42:29;;;;;;;0.50;0.50;;;;;;;4.83;74.07;95873.16;29395;212;63004;-58
2023/04/15 01:43:02;;;;;;;0.60;0.60;;;;;;;4.78;74.53;95868.63;29395;212;63019;-58
2023/04/15 01:43:37;;;;;;;0.50;0.50;;;;;;;4.75;74.62;95873.75;29395;202;63004;-59
2023/04/15 01:44:08;;;;;;;0.50;0.50;;;;;;;4.70;74.91;95872.69;29395;240;63009;-58
2023/04/15 01:44:40;;;;;;;0.60;0.60;;;;;;;4.66;75.05;95879.72;29394;289;64008;-59
2023/04/15 01:45:12;;;;;;;1.35;1.35;;;;;;;4.64;75.14;95876.50;29395;247;63009;-58
2023/04/15 01:45:47;;;;;;;0.60;0.60;;;;;;;4.62;74.85;95873.28;29395;295;63005;-58
2023/04/15 01:46:18;;;;;;;11.07;9.10;;;;;;;4.63;74.50;95869.53;29389;277;65009;-58
2023/04/15 01:46:50;;;;;;;0.50;0.50;;;;;;;4.63;74.54;95874.88;29395;207;63005;-58
2023/04/15 01:47:22;;;;;;;0.60;0.60;;;;;;;4.62;74.54;95867.91;29395;207;63009;-59
2023/04/15 01:47:53;;;;;;;0.60;0.60;;;;;;;4.63;74.63;95872.22;29395;203;63014;-59
2023/04/15 01:48:24;;;;;;;0.60;0.60;;;;;;;4.62;75.12;95870.59;29395;280;63017;-58
2023/04/15 01:48:56;;;;;;;0.60;0.60;;;;;;;4.60;75.07;95870.06;29395;237;63005;-58
2023/04/15 01:49:27;;;;;;;0.57;0.57;;;;;;;4.61;74.82;95876.25;29394;198;64013;-58
2023/04/15 01:50:00;;;;;;;0.55;0.55;;;;;;;4.62;74.35;95870.59;29395;204;63004;-58
2023/04/15 01:50:31;;;;;;;0.60;0.60;;;;;;;4.64;74.42;95868.44;29395;266;63009;-57
2023/04/15 01:51:03;;;;;;;0.55;0.55;;;;;;;4.66;74.17;95870.84;29395;239;63004;-59
2023/04/15 01:51:34;;;;;;;0.60;0.60;;;;;;;4.66;74.06;95879.72;29395;208;63009;-59
2023/04/15 01:52:06;;;;;;;0.60;0.60;;;;;;;4.66;74.05;95878.91;29395;229;63004;-59
2023/04/15 01:52:38;;;;;;;0.50;0.50;;;;;;;4.64;74.53;95871.13;29395;238;63025;-59
2023/04/15 01:53:09;;;;;;;0.60;0.60;;;;;;;4.63;74.52;95869.53;29395;238;63005;-59
2023/04/15 01:53:41;;;;;;;0.60;0.60;;;;;;;4.61;74.77;95874.38;29395;228;63009;-58
2023/04/15 01:54:12;;;;;;;0.60;0.60;;;;;;;4.59;75.10;95879.22;29395;287;63008;-58
2023/04/15 01:54:43;;;;;;;0.60;0.60;;;;;;;4.58;74.88;95866.88;29394;220;64013;-58
2023/04/15 01:55:15;;;;;;;0.60;0.60;;;;;;;4.57;75.39;95876.00;29395;218;63005;-58
2023/04/15 01:55:46;;;;;;;0.60;0.60;;;;;;;4.56;75.51;95877.09;29395;321;63017;-58
2023/04/15 01:56:17;;;;;;;0.60;0.60;;;;;;;4.54;75.87;95873.88;29395;214;63005;-58
2023/04/15 01:56:49;;;;;;;0.60;0.60;;;;;;;4.53;75.86;95879.53;29395;203;63009;-58
2023/04/15 01:57:20;;;;;;;0.50;0.50;;;;;;;4.51;75.89;95877.13;29395;216;63004;-58
2023/04/15 01:57:51;;;;;;;0.60;0.60;;;;;;;4.50;76.12;95874.75;29395;203;63009;-59
2023/04/15 01:58:22;;;;;;;0.60;0.60;;;;;;;4.48;75.85;95872.31;29395;235;63004;-58
2023/04/15 01:58:57;;;;;;;0.60;0.60;;;;;;;4.46;76.80;95884.44;29395;368;63009;-58
2023/04/15 01:59:31;;;;;;;0.60;0.60;;;;;;;4.42;76.67;95884.19;29395;239;63000;-58
2023/04/15 02:00:03;;;;;;;0.60;0.60;;;;;;;4.40;76.83;95880.97;29394;221;64013;-58
2023/04/15 02:00:34;;;;;;;0.50;0.50;;;;;;;4.39;76.22;95879.38;29395;288;63005;-58
2023/04/15 02:01:06;;;;;;;0.62;0.62;;;;;;;4.40;75.94;95878.28;29395;265;63009;-58
2023/04/15 02:01:37;;;;;;;0.60;0.60;;;;;;;4.40;76.12;95875.59;29395;210;63005;-58
2023/04/15 02:02:11;;;;;;;0.60;0.60;;;;;;;4.43;75.83;95879.63;29395;271;63009;-59
2023/04/15 02:02:43;;;;;;;0.60;0.60;;;;;;;4.44;75.80;95886.59;29395;212;63010;-58
2023/04/15 02:03:15;;;;;;;0.60;0.60;;;;;;;4.43;76.03;95880.41;29395;203;63009;-58
2023/04/15 02:03:46;;;;;;;0.60;0.60;;;;;;;4.44;75.53;95882.03;29395;253;63005;-59
2023/04/15 02:04:18;;;;;;;0.60;0.60;;;;;;;4.44;75.74;95871.28;29395;218;63009;-58
2023/04/15 02:04:49;;;;;;;0.60;0.60;;;;;;;4.46;75.62;95874.50;29395;235;63000;-59
2023/04/15 02:05:24;;;;;;;0.60;0.60;;;;;;;4.46;75.55;95871.81;29394;235;64013;-58
2023/04/15 02:05:55;;;;;;;0.60;0.60;;;;;;;4.48;75.67;95866.16;29395;214;63004;-58
2023/04/15 02:06:27;;;;;;;0.57;0.57;;;;;;;4.49;75.42;95873.94;29395;316;63009;-58
2023/04/15 02:06:58;;;;;;;0.60;0.60;;;;;;;4.49;75.37;95873.94;29395;299;63004;-58
2023/04/15 02:07:31;;;;;;;0.60;0.60;;;;;;;4.49;75.44;95873.94;29395;232;63008;-58
2023/04/15 02:08:02;;;;;;;0.52;0.52;;;;;;;4.48;75.76;95872.31;29395;200;63005;-58
2023/04/15 02:08:34;;;;;;;0.60;0.60;;;;;;;4.47;75.97;95881.47;29395;236;63009;-58
2023/04/15 02:09:05;;;;;;;0.60;0.60;;;;;;;4.45;75.97;95870.19;29395;210;63005;-58
2023/04/15 02:09:37;;;;;;;0.60;0.60;;;;;;;4.44;76.30;95876.66;29395;271;63023;-59
2023/04/15 02:10:11;;;;;;;0.60;0.60;;;;;;;4.44;76.02;95870.47;29395;417;63005;-58
2023/04/15 02:10:43;;;;;;;0.60;0.60;;;;;;;4.42;76.21;95860.00;29394;214;64013;-58
2023/04/15 02:11:14;;;;;;;0.60;0.60;;;;;;;4.42;75.94;95878.81;29395;357;63005;-58
2023/04/15 02:11:45;;;;;;;0.65;0.65;;;;;;;4.42;76.75;95875.31;29395;288;63009;-58
2023/04/15 02:12:20;;;;;;;0.50;0.50;;;;;;;4.41;77.45;95866.47;29395;239;63000;-58
2023/04/15 02:12:53;;;;;;;0.60;0.60;;;;;;;4.39;77.28;95876.69;29395;226;63009;-58
2023/04/15 02:13:24;;;;;;;0.60;0.60;;;;;;;4.38;77.23;95872.38;29395;220;63004;-58
2023/04/15 02:13:55;;;;;;;0.90;0.90;;;;;;;4.36;76.82;95875.34;29395;214;63008;-59
2023/04/15 02:14:26;;;;;;;0.60;0.60;;;;;;;4.36;76.77;95874.53;29395;324;63004;-58
2023/04/15 02:15:01;;;;;;;0.60;0.60;;;;;;;4.34;77.17;95882.06;29395;245;63009;-58
2023/04/15 02:15:33;;;;;;;0.60;0.60;;;;;;;4.31;76.94;95867.31;29395;207;63005;-58
2023/04/15 02:16:15;;;;;;;0.60;0.60;;;;;;;4.33;77.10;95869.72;29394;215;64014;-59
2023/04/15 02:16:46;;;;;;;0.60;0.60;;;;;;;4.33;77.08;95880.47;29394;205;64009;-58
2023/04/15 02:17:18;;;;;;;0.60;0.60;;;;;;;4.32;77.52;95878.84;29395;238;63009;-58
2023/04/15 02:17:51;;;;;;;0.60;0.60;;;;;;;4.29;78.47;95879.41;29395;203;63005;-58
2023/04/15 02:18:22;;;;;;;1.12;1.12;;;;;;;4.25;78.53;95873.00;29395;232;63009;-59
2023/04/15 02:18:54;;;;;;;0.60;0.60;;;;;;;4.22;78.68;95881.59;29395;246;63004;-58
2023/04/15 02:19:25;;;;;;;0.60;0.60;;;;;;;4.22;78.58;95878.91;29395;305;63009;-57
2023/04/15 02:19:56;;;;;;;0.60;0.60;;;;;;;4.21;78.21;95869.25;29394;228;64009;-58
2023/04/15 02:20:29;;;;;;;0.50;0.50;;;;;;;4.22;77.72;95873.53;29395;349;63009;-58
2023/04/15 02:21:01;;;;;;;0.60;0.60;;;;;;;4.23;77.52;95875.16;29395;214;63004;-59
2023/04/15 02:21:34;;;;;;;0.55;0.55;;;;;;;4.26;77.48;95874.59;29395;288;63008;-58
2023/04/15 02:22:07;;;;;;;0.60;0.60;;;;;;;4.27;77.34;95873.50;29395;310;63005;-58
2023/04/15 02:22:41;;;;;;;0.60;0.60;;;;;;;4.29;77.11;95868.66;29395;320;63009;-59
2023/04/15 02:23:13;;;;;;;0.60;0.60;;;;;;;4.31;76.81;95866.50;29395;210;63005;-59
2023/04/15 02:23:46;;;;;;;0.60;0.60;;;;;;;4.32;76.70;95879.66;29395;239;63009;-59
2023/04/15 02:24:19;;;;;;;0.60;0.60;;;;;;;4.33;76.47;95869.72;29395;230;63005;-59
2023/04/15 02:24:50;;;;;;;0.60;0.60;;;;;;;4.34;76.66;95869.44;29395;238;63009;-58
2023/04/15 02:25:23;;;;;;;0.60;0.60;;;;;;;4.36;76.34;95869.16;29394;212;64009;-60
2023/04/15 02:25:54;;;;;;;0.60;0.60;;;;;;;4.37;76.11;95865.41;29395;247;63009;-59
2023/04/15 02:26:25;;;;;;;0.60;0.60;;;;;;;4.40;76.23;95864.84;29395;200;63004;-60
2023/04/15 02:26:57;;;;;;;0.60;0.60;;;;;;;4.41;75.89;95860.28;29395;218;63009;-59
2023/04/15 02:27:29;;;;;;;0.60;0.60;;;;;;;4.45;75.72;95864.03;29395;351;63004;-59
2023/04/15 02:28:00;;;;;;;0.60;0.60;;;;;;;4.45;75.67;95862.13;29395;202;63009;-59
2023/04/15 02:28:32;;;;;;;0.60;0.60;;;;;;;4.47;75.75;95869.91;29395;202;63004;-59
2023/04/15 02:29:04;;;;;;;0.60;0.60;;;;;;;4.46;75.70;95869.13;29395;214;63008;-59
2023/04/15 02:29:35;;;;;;;0.50;0.50;;;;;;;4.46;75.78;95865.62;29395;234;63004;-58
2023/04/15 02:30:08;;;;;;;0.60;0.60;;;;;;;4.44;76.50;95871.28;29395;203;63009;-58
2023/04/15 02:30:40;;;;;;;0.60;0.60;;;;;;;4.42;76.34;95870.75;29394;212;64009;-59
2023/04/15 02:31:11;;;;;;;0.60;0.60;;;;;;;4.43;76.05;95868.88;29395;258;63009;-58
2023/04/15 02:31:47;;;;;;;0.60;0.60;;;;;;;4.40;76.59;95870.22;29395;212;63005;-58
2023/04/15 02:32:19;;;;;;;0.60;0.60;;;;;;;4.36;77.02;95871.84;29395;231;63009;-59
2023/04/15 02:32:50;;;;;;;0.60;0.60;;;;;;;4.33;77.40;95875.09;29394;202;64009;-59
2023/04/15 02:33:22;;;;;;;0.60;0.60;;;;;;;4.31;76.67;95867.31;29395;218;63009;-58
2023/04/15 02:33:53;;;;;;;0.50;0.50;;;;;;;4.32;76.62;95868.13;29395;241;63004;-59
2023/04/15 02:34:26;;;;;;;0.60;0.60;;;;;;;4.33;76.41;95867.03;29395;215;63009;-59
2023/04/15 02:35:02;;;;;;;0.60;0.60;;;;;;;4.34;76.49;95871.34;29395;240;63004;-59
2023/04/15 02:35:35;;;;;;;0.60;0.60;;;;;;;4.34;76.37;95857.91;29395;355;63009;-58
2023/04/15 02:36:09;;;;;;;0.60;0.60;;;;;;;4.36;76.57;95869.16;29395;224;63004;-59